Time,TemperatureF,DewpointF,PressureIn,WindDirection,WindDirectionDegrees,WindSpeedMPH,WindSpeedGustMPH,Humidity,HourlyPrecipIn,Conditions,Clouds,dailyrainin,SoftwareType,DateUTC
2013-05-02 00:01:00,39.9,23.3,29.15,SSW,212,11.0,11.0,51,0.00,,-RA,0.00,VWS V14.00,2013-05-02 05:01:00,
2013-05-02 00:06:00,39.9,23.3,29.15,NW,308,5.8,11.0,51,0.00,,-RA,0.00,VWS V14.00,2013-05-02 05:06:00,
2013-05-02 00:11:00,39.9,23.3,29.18,WNW,295,5.8,6.3,51,0.00,,-RA,0.00,VWS V14.00,2013-05-02 05:11:00,
2013-05-02 00:16:00,39.9,23.3,29.18,West,272,4.9,12.8,51,0.00,,-RA,0.00,VWS V14.00,2013-05-02 05:16:00,
2013-05-02 00:21:00,39.9,23.7,29.18,West,273,4.0,7.6,52,0.00,,-RA,0.00,VWS V14.00,2013-05-02 05:21:00,
2013-05-02 00:26:00,39.4,23.7,29.21,WNW,297,3.6,11.0,53,0.00,,-RA,0.00,VWS V14.00,2013-05-02 05:26:00,
2013-05-02 00:31:00,38.7,26.0,29.21,WNW,282,8.1,8.1,60,0.00,,OVC039,0.00,VWS V14.00,2013-05-02 05:31:00,
2013-05-02 00:36:00,38.5,28.1,29.21,NW,309,8.3,15.4,66,0.00,,OVC039,0.00,VWS V14.00,2013-05-02 05:36:00,
2013-05-02 00:41:00,38.1,28.9,29.18,NW,304,5.4,8.7,69,0.00,,OVC039,0.00,VWS V14.00,2013-05-02 05:41:00,
2013-05-02 00:46:00,37.9,29.7,29.18,West,278,3.6,11.0,72,0.00,,OVC039,0.00,VWS V14.00,2013-05-02 05:46:00,
2013-05-02 00:51:00,37.9,30.4,29.18,WNW,296,4.0,7.6,74,0.00,,OVC039,0.00,VWS V14.00,2013-05-02 05:51:00,
2013-05-02 00:56:00,37.8,30.6,29.18,SSW,209,2.7,10.5,75,0.00,,OVC039,0.00,VWS V14.00,2013-05-02 05:56:00,
2013-05-02 01:01:00,37.9,31.1,29.18,West,271,4.0,8.1,76,0.00,,-RA,0.00,VWS V14.00,2013-05-02 06:01:00,
2013-05-02 01:06:00,37.9,31.4,29.18,WNW,288,8.7,8.7,77,0.00,,-RA,0.00,VWS V14.00,2013-05-02 06:06:00,
2013-05-02 01:11:00,38.1,31.9,29.21,West,281,15.0,15.0,78,0.00,,-RA,0.00,VWS V14.00,2013-05-02 06:11:00,
2013-05-02 01:16:00,38.1,31.9,29.21,SW,222,5.4,15.0,78,0.00,,-RA,0.00,VWS V14.00,2013-05-02 06:16:00,
2013-05-02 01:21:00,37.9,32.0,29.21,WNW,302,8.1,8.3,79,0.00,,-RA,0.00,VWS V14.00,2013-05-02 06:21:00,
2013-05-02 01:26:00,37.6,31.7,29.18,WNW,283,10.5,10.5,79,0.00,,-RA,0.00,VWS V14.00,2013-05-02 06:26:00,
2013-05-02 01:31:00,37.6,32.0,29.18,WSW,256,8.3,8.3,80,0.00,,-RA,0.00,VWS V14.00,2013-05-02 06:31:00,
2013-05-02 01:36:00,37.4,31.8,29.18,NW,315,5.4,10.1,80,0.00,,-RA,0.00,VWS V14.00,2013-05-02 06:36:00,
2013-05-02 01:41:00,37.4,32.1,29.18,NW,305,8.7,8.7,81,0.00,,-RA,0.00,VWS V14.00,2013-05-02 06:41:00,
2013-05-02 01:46:00,37.4,32.1,29.18,WNW,298,6.3,10.5,81,0.00,,-RA,0.00,VWS V14.00,2013-05-02 06:46:00,
2013-05-02 01:51:00,37.4,32.4,29.18,West,268,10.5,11.4,82,0.00,,-RA,0.00,VWS V14.00,2013-05-02 06:51:00,
2013-05-02 01:56:00,37.2,32.2,29.18,WSW,242,7.2,12.8,82,0.04,,-RA,0.04,VWS V14.00,2013-05-02 06:56:00,
2013-05-02 02:01:00,37.4,32.7,29.18,WSW,257,5.8,12.8,83,0.04,,-RA,0.04,VWS V14.00,2013-05-02 07:01:00,
2013-05-02 02:06:00,37.2,32.5,29.18,NW,318,8.7,17.4,83,0.08,,-RA,0.08,VWS V14.00,2013-05-02 07:06:00,
2013-05-02 02:11:00,37.2,32.8,29.15,NW,316,8.1,13.2,84,0.08,,-RA,0.08,VWS V14.00,2013-05-02 07:11:00,
2013-05-02 02:16:00,37.4,33.0,29.15,NW,318,7.6,13.2,84,0.08,,-RA,0.08,VWS V14.00,2013-05-02 07:16:00,
2013-05-02 02:21:00,37.2,32.8,29.15,WNW,286,5.4,5.4,84,0.08,,-RA,0.08,VWS V14.00,2013-05-02 07:21:00,
2013-05-02 02:26:00,37.2,33.1,29.18,WNW,298,6.3,8.3,85,0.08,,-RA,0.08,VWS V14.00,2013-05-02 07:26:00,
2013-05-02 02:31:00,37.0,33.0,29.18,WNW,285,8.1,11.0,85,0.12,,-RA,0.12,VWS V14.00,2013-05-02 07:31:00,
2013-05-02 02:36:00,37.0,33.0,29.18,West,279,13.2,15.0,85,0.12,,-RA,0.12,VWS V14.00,2013-05-02 07:36:00,
2013-05-02 02:41:00,36.9,32.8,29.18,WSW,256,3.6,11.4,85,0.16,,-RA,0.16,VWS V14.00,2013-05-02 07:41:00,
2013-05-02 02:46:00,37.0,33.0,29.18,WSW,249,10.5,12.8,85,0.16,, +RA,0.16,VWS V14.00,2013-05-02 07:46:00,
2013-05-02 02:51:00,37.0,33.2,29.18,SSW,206,4.0,9.6,86,0.16,, +RA,0.16,VWS V14.00,2013-05-02 07:51:00,
2013-05-02 02:56:00,37.0,33.2,29.21,WNW,298,6.3,10.5,86,0.16,, +RA,0.16,VWS V14.00,2013-05-02 07:56:00,
2013-05-02 03:01:00,36.9,33.1,29.21,WNW,284,5.8,10.1,86,0.16,,-RA,0.20,VWS V14.00,2013-05-02 08:01:00,
2013-05-02 03:06:00,36.9,33.1,29.21,SW,223,7.6,10.1,86,0.16,,-RA,0.20,VWS V14.00,2013-05-02 08:06:00,
2013-05-02 03:11:00,36.9,33.1,29.21,SW,231,4.0,11.0,86,0.20,,-RA,0.28,VWS V14.00,2013-05-02 08:11:00,
2013-05-02 03:16:00,36.7,32.9,29.21,WNW,302,4.9,13.2,86,0.20,,-RA,0.28,VWS V14.00,2013-05-02 08:16:00,
2013-05-02 03:21:00,36.7,32.9,29.21,West,279,4.0,7.6,86,0.20,,-RA,0.28,VWS V14.00,2013-05-02 08:21:00,
2013-05-02 03:26:00,36.7,33.2,29.18,NW,321,2.7,12.8,87,0.24,,RA,0.31,VWS V14.00,2013-05-02 08:26:00,
2013-05-02 03:31:00,36.7,33.2,29.18,WNW,283,10.1,10.1,87,0.20,,RA,0.31,VWS V14.00,2013-05-02 08:31:00,
2013-05-02 03:36:00,36.5,33.0,29.18,West,279,8.7,13.2,87,0.24,,RA,0.35,VWS V14.00,2013-05-02 08:36:00,
2013-05-02 03:41:00,36.3,32.8,29.18,WNW,294,11.4,12.3,87,0.24,,RA,0.39,VWS V14.00,2013-05-02 08:41:00,
2013-05-02 03:46:00,36.1,32.7,29.18,West,271,12.8,18.3,87,0.24,,RA,0.39,VWS V14.00,2013-05-02 08:46:00,
2013-05-02 03:51:00,36.1,32.7,29.18,WNW,293,7.6,16.8,87,0.28,,RA,0.43,VWS V14.00,2013-05-02 08:51:00,
2013-05-02 03:56:00,36.1,32.7,29.15,West,266,8.3,16.8,87,0.31,,RA,0.47,VWS V14.00,2013-05-02 08:56:00,
2013-05-02 04:01:00,36.1,32.7,29.15,West,268,12.8,12.8,87,0.28,,RA,0.47,VWS V14.00,2013-05-02 09:01:00,
2013-05-02 04:06:00,36.1,32.7,29.15,NW,304,6.3,12.8,87,0.28,,RA,0.47,VWS V14.00,2013-05-02 09:06:00,
2013-05-02 04:11:00,36.3,32.8,29.18,WSW,247,4.0,8.1,87,0.28,,RA,0.47,VWS V14.00,2013-05-02 09:11:00,
2013-05-02 04:16:00,36.3,32.8,29.18,WSW,250,13.2,21.0,87,0.31,,RA,0.51,VWS V14.00,2013-05-02 09:16:00,
2013-05-02 04:21:00,36.3,32.8,29.18,WNW,293,5.8,8.3,87,0.24,,RA,0.51,VWS V14.00,2013-05-02 09:21:00,
2013-05-02 04:26:00,36.5,33.3,29.18,West,278,3.6,8.3,88,0.24,,RA,0.51,VWS V14.00,2013-05-02 09:26:00,
2013-05-02 04:31:00,36.5,33.3,29.18,WNW,285,5.4,12.3,88,0.20,,RA,0.51,VWS V14.00,2013-05-02 09:31:00,
2013-05-02 04:36:00,36.3,32.8,29.18,WNW,296,3.6,12.8,87,0.20,,RA,0.51,VWS V14.00,2013-05-02 09:36:00,
2013-05-02 04:41:00,36.5,33.3,29.21,NW,309,5.4,5.8,88,0.20,,RA,0.55,VWS V14.00,2013-05-02 09:41:00,
2013-05-02 04:46:00,36.3,33.1,29.21,NW,312,8.3,12.8,88,0.20,,RA,0.55,VWS V14.00,2013-05-02 09:46:00,
2013-05-02 04:51:00,36.3,33.1,29.21,WNW,287,3.1,10.1,88,0.12,,RA,0.55,VWS V14.00,2013-05-02 09:51:00,
2013-05-02 04:56:00,36.3,33.1,29.18,SSE,155,3.1,11.0,88,0.12,,RA,0.55,VWS V14.00,2013-05-02 09:56:00,
2013-05-02 05:01:00,36.3,33.1,29.18,WSW,251,10.5,10.5,88,0.12,,RA,0.59,VWS V14.00,2013-05-02 10:01:00,
2013-05-02 05:06:00,36.1,32.9,29.18,WNW,289,5.4,10.5,88,0.12,,RA,0.59,VWS V14.00,2013-05-02 10:06:00,
2013-05-02 05:11:00,36.3,33.1,29.23,NW,312,4.0,7.2,88,0.12,,RA,0.59,VWS V14.00,2013-05-02 10:11:00,
2013-05-02 05:16:00,36.1,32.9,29.23,West,280,8.1,11.0,88,0.16,,-RA,0.63,VWS V14.00,2013-05-02 10:16:00,
2013-05-02 05:21:00,35.8,32.6,29.23,WNW,293,12.8,12.8,88,0.12,,-RA,0.63,VWS V14.00,2013-05-02 10:21:00,
2013-05-02 05:26:00,35.1,31.9,29.21,WNW,300,5.4,12.8,88,0.12,,-RA,0.63,VWS V14.00,2013-05-02 10:26:00,
2013-05-02 05:31:00,35.1,31.9,29.21,NW,321,10.5,10.5,88,0.20,,-RA,0.71,VWS V14.00,2013-05-02 10:31:00,
2013-05-02 05:36:00,35.1,31.9,29.21,West,280,5.8,12.8,88,0.20,,-RA,0.71,VWS V14.00,2013-05-02 10:36:00,
2013-05-02 05:41:00,35.1,31.9,29.23,WNW,298,7.6,9.2,88,0.24,,-RA,0.75,VWS V14.00,2013-05-02 10:41:00,
2013-05-02 05:46:00,34.9,31.7,29.23,WNW,300,7.6,10.1,88,0.24,,-RA,0.75,VWS V14.00,2013-05-02 10:46:00,
2013-05-02 05:51:00,34.7,31.5,29.23,West,265,8.3,8.3,88,0.24,,,0.79,VWS V14.00,2013-05-02 10:51:00,
2013-05-02 05:56:00,34.5,31.3,29.23,West,281,6.3,9.6,88,0.24,,,0.79,VWS V14.00,2013-05-02 10:56:00,
2013-05-02 06:01:00,34.5,31.3,29.23,WNW,293,4.0,5.8,88,0.20,,,0.79,VWS V14.00,2013-05-02 11:01:00,
2013-05-02 06:06:00,34.3,31.2,29.23,SW,232,3.1,11.0,88,0.20,,,0.79,VWS V14.00,2013-05-02 11:06:00,
2013-05-02 06:11:00,34.3,31.2,29.23,SW,233,6.3,8.3,88,0.20,,,0.79,VWS V14.00,2013-05-02 11:11:00,
2013-05-02 06:16:00,34.3,31.4,29.23,WNW,292,2.2,8.7,89,0.20,,,0.79,VWS V14.00,2013-05-02 11:16:00,
2013-05-02 06:21:00,34.2,31.3,29.23,WNW,297,5.4,7.6,89,0.20,,,0.83,VWS V14.00,2013-05-02 11:21:00,
2013-05-02 06:26:00,33.8,30.9,29.23,SW,224,8.1,11.0,89,0.20,,RA,0.83,VWS V14.00,2013-05-02 11:26:00,
2013-05-02 06:31:00,33.8,30.9,29.23,WNW,292,8.7,8.7,89,0.16,,RA,0.83,VWS V14.00,2013-05-02 11:31:00,
2013-05-02 06:36:00,33.8,30.9,29.23,WSW,250,5.4,12.3,89,0.16,,RA,0.83,VWS V14.00,2013-05-02 11:36:00,
2013-05-02 06:41:00,33.8,30.9,29.21,West,277,0.0,11.0,89,0.08,,RA,0.83,VWS V14.00,2013-05-02 11:41:00,
2013-05-02 06:46:00,33.8,30.9,29.21,NW,306,5.8,11.0,89,0.08,,,0.83,VWS V14.00,2013-05-02 11:46:00,
2013-05-02 06:51:00,34.0,31.1,29.21,SW,232,10.5,10.5,89,0.04,,,0.83,VWS V14.00,2013-05-02 11:51:00,
2013-05-02 06:56:00,34.0,31.1,29.21,West,272,6.3,11.4,89,0.04,,,0.83,VWS V14.00,2013-05-02 11:56:00,
2013-05-02 07:01:00,34.2,31.3,29.21,WSW,241,8.3,8.3,89,0.04,,,0.83,VWS V14.00,2013-05-02 12:01:00,
2013-05-02 07:06:00,34.2,31.3,29.21,WSW,258,12.3,12.3,89,0.04,,,0.83,VWS V14.00,2013-05-02 12:06:00,
2013-05-02 07:11:00,34.2,31.5,29.23,WNW,295,4.0,5.8,90,0.04,,,0.83,VWS V14.00,2013-05-02 12:11:00,
2013-05-02 07:16:00,34.3,31.7,29.23,SW,234,6.3,11.0,90,0.04,,,0.83,VWS V14.00,2013-05-02 12:16:00,
2013-05-02 07:21:00,34.5,31.9,29.23,West,281,8.1,11.0,90,0.00,,,0.83,VWS V14.00,2013-05-02 12:21:00,
2013-05-02 07:26:00,34.5,31.9,29.26,WNW,292,5.8,12.3,90,0.00,,,0.83,VWS V14.00,2013-05-02 12:26:00,
2013-05-02 07:31:00,34.5,31.9,29.26,NW,306,4.9,11.0,90,0.00,,,0.83,VWS V14.00,2013-05-02 12:31:00,
2013-05-02 07:36:00,34.7,32.1,29.26,West,267,3.6,11.0,90,0.00,,,0.83,VWS V14.00,2013-05-02 12:36:00,
2013-05-02 07:41:00,34.9,32.2,29.23,WSW,245,11.0,11.0,90,0.00,,,0.83,VWS V14.00,2013-05-02 12:41:00,
2013-05-02 07:46:00,34.5,31.9,29.23,West,266,8.3,15.4,90,0.00,,,0.83,VWS V14.00,2013-05-02 12:46:00,
2013-05-02 07:51:00,34.3,31.7,29.23,NW,313,2.7,8.3,90,0.00,,,0.83,VWS V14.00,2013-05-02 12:51:00,
2013-05-02 07:56:00,34.5,31.9,29.26,NW,326,5.8,8.7,90,0.00,,,0.83,VWS V14.00,2013-05-02 12:56:00,
2013-05-02 08:01:00,34.3,31.7,29.26,North,353,4.0,4.9,90,0.00,,,0.83,VWS V14.00,2013-05-02 13:01:00,
2013-05-02 08:06:00,34.3,31.7,29.26,WNW,284,4.0,8.1,90,0.00,,,0.83,VWS V14.00,2013-05-02 13:06:00,
2013-05-02 08:11:00,34.3,32.0,29.29,West,278,3.6,7.6,91,0.00,,,0.83,VWS V14.00,2013-05-02 13:11:00,
2013-05-02 08:16:00,34.3,32.0,29.29,SSW,208,8.7,8.7,91,0.00,,,0.83,VWS V14.00,2013-05-02 13:16:00,
2013-05-02 08:21:00,34.3,32.0,29.29,NW,308,5.4,8.3,91,0.00,,,0.83,VWS V14.00,2013-05-02 13:21:00,
2013-05-02 08:26:00,34.3,32.0,29.26,WNW,287,5.4,8.3,91,0.00,,,0.83,VWS V14.00,2013-05-02 13:26:00,
2013-05-02 08:31:00,34.3,32.0,29.26,West,264,4.9,5.4,91,0.00,,,0.83,VWS V14.00,2013-05-02 13:31:00,
2013-05-02 08:36:00,34.5,32.2,29.26,West,276,9.6,9.6,91,0.00,,,0.83,VWS V14.00,2013-05-02 13:36:00,
2013-05-02 08:41:00,34.5,32.2,29.26,WNW,287,8.7,10.5,91,0.00,,,0.83,VWS V14.00,2013-05-02 13:41:00,
2013-05-02 08:46:00,34.5,32.2,29.26,WNW,299,5.8,10.5,91,0.00,,,0.83,VWS V14.00,2013-05-02 13:46:00,
2013-05-02 08:51:00,34.5,32.2,29.26,WNW,283,5.8,8.1,91,0.00,,,0.83,VWS V14.00,2013-05-02 13:51:00,
2013-05-02 08:56:00,34.5,32.2,29.26,SW,232,3.1,12.3,91,0.00,,,0.83,VWS V14.00,2013-05-02 13:56:00,
2013-05-02 09:01:00,34.7,32.3,29.26,WNW,282,3.6,6.3,91,0.00,,,0.83,VWS V14.00,2013-05-02 14:01:00,
2013-05-02 09:06:00,34.7,32.3,29.26,WNW,293,5.4,10.5,91,0.00,,,0.83,VWS V14.00,2013-05-02 14:06:00,
2013-05-02 09:11:00,34.7,32.3,29.26,NW,309,5.4,14.5,91,0.00,,,0.83,VWS V14.00,2013-05-02 14:11:00,
2013-05-02 09:16:00,34.7,32.3,29.26,WNW,299,6.3,14.5,91,0.00,,,0.83,VWS V14.00,2013-05-02 14:16:00,
2013-05-02 09:21:00,34.9,32.5,29.26,NW,305,6.3,8.3,91,0.00,,,0.83,VWS V14.00,2013-05-02 14:21:00,
2013-05-02 09:26:00,34.9,32.5,29.26,WSW,248,3.1,12.8,91,0.00,,,0.83,VWS V14.00,2013-05-02 14:26:00,
2013-05-02 09:31:00,34.5,32.2,29.26,NW,311,10.5,10.5,91,0.00,,,0.83,VWS V14.00,2013-05-02 14:31:00,
2013-05-02 09:36:00,34.5,32.2,29.26,WNW,291,8.1,11.0,91,0.00,,,0.83,VWS V14.00,2013-05-02 14:36:00,
2013-05-02 09:41:00,34.5,32.2,29.26,WSW,244,8.1,8.1,91,0.00,,,0.83,VWS V14.00,2013-05-02 14:41:00,
2013-05-02 09:46:00,34.3,32.0,29.26,NW,325,5.8,11.0,91,0.00,,,0.83,VWS V14.00,2013-05-02 14:46:00,
2013-05-02 09:51:00,34.3,32.0,29.26,SW,219,10.1,10.5,91,0.00,,,0.83,VWS V14.00,2013-05-02 14:51:00,
2013-05-02 09:56:00,34.5,32.2,29.29,NW,309,7.6,11.9,91,0.00,,,0.83,VWS V14.00,2013-05-02 14:56:00,
2013-05-02 10:01:00,34.3,32.0,29.29,West,280,4.0,5.4,91,0.00,,,0.83,VWS V14.00,2013-05-02 15:01:00,
2013-05-02 10:06:00,34.3,32.0,29.29,West,268,6.3,10.5,91,0.00,,,0.83,VWS V14.00,2013-05-02 15:06:00,
2013-05-02 10:11:00,34.3,32.0,29.29,NW,306,11.0,11.0,91,0.00,,,0.83,VWS V14.00,2013-05-02 15:11:00,
2013-05-02 10:16:00,34.5,32.2,29.29,WNW,294,4.0,11.0,91,0.00,,,0.83,VWS V14.00,2013-05-02 15:16:00,
2013-05-02 10:21:00,34.5,32.2,29.29,West,264,7.6,7.6,91,0.00,,,0.83,VWS V14.00,2013-05-02 15:21:00,
2013-05-02 10:26:00,34.3,32.0,29.29,NW,307,4.9,8.3,91,0.00,,,0.83,VWS V14.00,2013-05-02 15:26:00,
2013-05-02 10:31:00,34.5,32.2,29.29,NW,304,8.1,8.1,91,0.00,,,0.83,VWS V14.00,2013-05-02 15:31:00,
2013-05-02 10:36:00,34.3,32.0,29.29,West,272,6.3,8.3,91,0.00,,,0.83,VWS V14.00,2013-05-02 15:36:00,
2013-05-02 10:41:00,34.5,32.2,29.26,SW,225,5.4,6.3,91,0.00,,,0.83,VWS V14.00,2013-05-02 15:41:00,
2013-05-02 10:46:00,34.3,32.0,29.26,SW,231,8.7,8.7,91,0.00,,,0.83,VWS V14.00,2013-05-02 15:46:00,
2013-05-02 10:51:00,34.3,32.0,29.26,WNW,293,4.9,7.6,91,0.00,,,0.83,VWS V14.00,2013-05-02 15:51:00,
2013-05-02 10:56:00,34.3,32.0,29.26,WSW,246,5.8,10.5,91,0.00,,,0.83,VWS V14.00,2013-05-02 15:56:00,
2013-05-02 11:01:00,34.5,32.2,29.26,WSW,249,8.3,8.3,91,0.00,,,0.83,VWS V14.00,2013-05-02 16:01:00,
2013-05-02 11:06:00,34.5,32.2,29.26,SSW,205,5.4,10.5,91,0.00,,,0.83,VWS V14.00,2013-05-02 16:06:00,
2013-05-02 11:11:00,34.3,32.0,29.26,WNW,283,3.1,9.6,91,0.00,,,0.83,VWS V14.00,2013-05-02 16:11:00,
2013-05-02 11:16:00,34.3,32.0,29.26,NW,306,5.4,10.1,91,0.00,,,0.83,VWS V14.00,2013-05-02 16:16:00,
2013-05-02 11:21:00,34.3,32.0,29.26,NNW,330,8.7,9.6,91,0.00,,,0.83,VWS V14.00,2013-05-02 16:21:00,
2013-05-02 11:26:00,34.3,32.0,29.26,WNW,283,4.0,10.1,91,0.00,,,0.83,VWS V14.00,2013-05-02 16:26:00,
2013-05-02 11:31:00,34.5,32.2,29.26,SW,224,7.6,8.1,91,0.00,,,0.83,VWS V14.00,2013-05-02 16:31:00,
2013-05-02 11:36:00,34.3,32.0,29.26,WSW,246,0.0,11.0,91,0.00,,,0.83,VWS V14.00,2013-05-02 16:36:00,
2013-05-02 11:41:00,34.3,32.0,29.29,West,265,3.1,8.1,91,0.00,,,0.83,VWS V14.00,2013-05-02 16:41:00,
2013-05-02 11:46:00,34.3,32.0,29.29,NW,314,4.5,8.1,91,0.00,,,0.83,VWS V14.00,2013-05-02 16:46:00,
2013-05-02 11:51:00,34.3,32.0,29.29,WNW,290,0.0,3.6,91,0.00,,,0.83,VWS V14.00,2013-05-02 16:51:00,
2013-05-02 11:56:00,34.3,32.0,29.29,West,271,4.0,7.6,91,0.00,,,0.83,VWS V14.00,2013-05-02 16:56:00,
2013-05-02 12:01:00,34.3,32.0,29.29,West,259,3.1,5.8,91,0.00,,,0.83,VWS V14.00,2013-05-02 17:01:00,
2013-05-02 12:06:00,34.3,32.0,29.29,West,267,3.1,6.3,91,0.00,,,0.83,VWS V14.00,2013-05-02 17:06:00,
2013-05-02 12:11:00,34.3,32.0,29.26,NW,319,4.0,5.8,91,0.00,,,0.83,VWS V14.00,2013-05-02 17:11:00,
2013-05-02 12:16:00,34.5,32.2,29.26,West,280,8.3,8.3,91,0.00,,,0.83,VWS V14.00,2013-05-02 17:16:00,
2013-05-02 12:21:00,34.3,32.0,29.26,WNW,292,2.7,4.9,91,0.00,,,0.83,VWS V14.00,2013-05-02 17:21:00,
2013-05-02 12:26:00,34.3,32.0,29.29,West,276,3.1,6.3,91,0.00,,,0.83,VWS V14.00,2013-05-02 17:26:00,
2013-05-02 12:31:00,34.3,32.0,29.29,SW,229,2.7,3.6,91,0.00,,,0.83,VWS V14.00,2013-05-02 17:31:00,
2013-05-02 12:36:00,34.3,32.3,29.29,West,272,2.2,5.8,92,0.00,,,0.83,VWS V14.00,2013-05-02 17:36:00,
2013-05-02 12:41:00,34.5,32.4,29.29,WSW,242,3.1,3.1,92,0.00,,,0.83,VWS V14.00,2013-05-02 17:41:00,
2013-05-02 12:46:00,34.5,32.4,29.29,WSW,246,2.7,6.3,92,0.00,,,0.83,VWS V14.00,2013-05-02 17:46:00,
2013-05-02 12:51:00,34.5,32.4,29.29,West,279,2.7,4.0,92,0.00,,,0.83,VWS V14.00,2013-05-02 17:51:00,
2013-05-02 12:56:00,34.7,32.6,29.29,WSW,249,2.2,5.8,92,0.00,,,0.83,VWS V14.00,2013-05-02 17:56:00,
2013-05-02 13:01:00,34.7,32.6,29.29,WNW,290,2.2,3.6,92,0.00,,,0.83,VWS V14.00,2013-05-02 18:01:00,
2013-05-02 13:06:00,34.9,32.8,29.29,SSW,208,0.0,5.8,92,0.00,,,0.83,VWS V14.00,2013-05-02 18:06:00,
2013-05-02 13:11:00,34.9,32.8,29.29,NW,304,3.6,4.9,92,0.00,,,0.83,VWS V14.00,2013-05-02 18:11:00,
2013-05-02 13:16:00,35.1,33.0,29.29,WNW,294,5.8,5.8,92,0.00,,,0.83,VWS V14.00,2013-05-02 18:16:00,
2013-05-02 13:21:00,35.1,33.0,29.29,WSW,255,3.1,3.6,92,0.04,,,0.87,VWS V14.00,2013-05-02 18:21:00,
2013-05-02 13:26:00,34.9,32.8,29.29,WNW,289,5.4,12.8,92,0.04,,,0.87,VWS V14.00,2013-05-02 18:26:00,
2013-05-02 13:31:00,34.9,32.8,29.29,WSW,258,5.8,11.0,92,0.04,,,0.87,VWS V14.00,2013-05-02 18:31:00,
2013-05-02 13:36:00,34.9,32.5,29.29,WNW,289,6.3,11.0,91,0.04,,,0.87,VWS V14.00,2013-05-02 18:36:00,
2013-05-02 13:41:00,35.1,32.7,29.29,West,268,5.8,8.1,91,0.04,,,0.87,VWS V14.00,2013-05-02 18:41:00,
2013-05-02 13:46:00,34.9,32.5,29.29,West,273,4.0,8.3,91,0.08,,,0.91,VWS V14.00,2013-05-02 18:46:00,
2013-05-02 13:51:00,34.9,32.5,29.29,SW,231,5.4,7.2,91,0.08,,,0.91,VWS V14.00,2013-05-02 18:51:00,
2013-05-02 13:56:00,35.1,32.7,29.29,WSW,241,5.8,10.5,91,0.08,,,0.91,VWS V14.00,2013-05-02 18:56:00,
2013-05-02 14:01:00,34.7,32.3,29.29,NW,308,3.6,8.3,91,0.08,,,0.91,VWS V14.00,2013-05-02 19:01:00,
2013-05-02 14:06:00,34.5,32.2,29.29,WNW,283,5.8,11.0,91,0.08,,,0.91,VWS V14.00,2013-05-02 19:06:00,
2013-05-02 14:11:00,34.5,31.9,29.29,WNW,297,5.8,8.3,90,0.12,,,0.94,VWS V14.00,2013-05-02 19:11:00,
2013-05-02 14:16:00,34.3,31.7,29.29,West,280,0.0,10.1,90,0.12,,,0.94,VWS V14.00,2013-05-02 19:16:00,
2013-05-02 14:21:00,34.3,31.7,29.29,WSW,239,6.3,8.1,90,0.08,,,0.94,VWS V14.00,2013-05-02 19:21:00,
2013-05-02 14:26:00,34.3,31.7,29.29,WNW,300,5.4,13.2,90,0.08,,,0.94,VWS V14.00,2013-05-02 19:26:00,
2013-05-02 14:31:00,34.5,31.9,29.29,NW,306,6.3,10.1,90,0.08,,,0.94,VWS V14.00,2013-05-02 19:31:00,
2013-05-02 14:36:00,34.5,31.9,29.29,WSW,250,5.4,10.5,90,0.08,,,0.94,VWS V14.00,2013-05-02 19:36:00,
2013-05-02 14:41:00,34.3,31.7,29.29,West,264,11.0,11.0,90,0.08,,,0.94,VWS V14.00,2013-05-02 19:41:00,
2013-05-02 14:46:00,34.3,31.7,29.29,WNW,282,3.6,16.3,90,0.16,,,1.02,VWS V14.00,2013-05-02 19:46:00,
2013-05-02 14:51:00,34.3,31.7,29.29,SW,229,10.5,10.5,90,0.12,,,1.02,VWS V14.00,2013-05-02 19:51:00,
2013-05-02 14:56:00,34.2,31.5,29.26,West,263,7.6,11.0,90,0.12,,,1.02,VWS V14.00,2013-05-02 19:56:00,
2013-05-02 15:01:00,34.0,31.4,29.26,WSW,248,8.3,11.0,90,0.12,,,1.02,VWS V14.00,2013-05-02 20:01:00,
2013-05-02 15:06:00,34.2,31.3,29.26,WNW,288,6.3,14.1,89,0.12,,,1.02,VWS V14.00,2013-05-02 20:06:00,
2013-05-02 15:11:00,34.0,31.1,29.29,West,269,6.3,10.5,89,0.08,,,1.02,VWS V14.00,2013-05-02 20:11:00,
2013-05-02 15:16:00,34.2,31.3,29.29,WNW,289,4.9,10.5,89,0.08,,,1.02,VWS V14.00,2013-05-02 20:16:00,
2013-05-02 15:21:00,34.2,31.3,29.29,WNW,285,8.3,8.3,89,0.08,,,1.02,VWS V14.00,2013-05-02 20:21:00,
2013-05-02 15:26:00,34.2,31.3,29.26,West,263,10.5,10.5,89,0.08,,,1.02,VWS V14.00,2013-05-02 20:26:00,
2013-05-02 15:31:00,34.0,31.1,29.26,West,278,9.6,11.4,89,0.12,,,1.06,VWS V14.00,2013-05-02 20:31:00,
2013-05-02 15:36:00,34.2,31.3,29.26,WNW,287,7.6,11.4,89,0.12,,,1.06,VWS V14.00,2013-05-02 20:36:00,
2013-05-02 15:41:00,34.0,31.1,29.26,West,274,9.6,11.0,89,0.12,,,1.06,VWS V14.00,2013-05-02 20:41:00,
2013-05-02 15:46:00,34.0,31.1,29.26,WNW,291,10.5,13.2,89,0.12,,,1.06,VWS V14.00,2013-05-02 20:46:00,
2013-05-02 15:51:00,34.0,31.1,29.26,WNW,288,8.7,13.2,89,0.04,,,1.06,VWS V14.00,2013-05-02 20:51:00,
2013-05-02 15:56:00,34.0,31.1,29.26,NW,313,3.1,13.2,89,0.04,,,1.06,VWS V14.00,2013-05-02 20:56:00,
2013-05-02 16:01:00,34.0,31.1,29.26,West,269,4.0,6.3,89,0.04,,,1.06,VWS V14.00,2013-05-02 21:01:00,
2013-05-02 16:06:00,34.2,31.3,29.26,West,278,3.6,11.4,89,0.04,,,1.06,VWS V14.00,2013-05-02 21:06:00,
2013-05-02 16:11:00,34.0,31.1,29.26,NW,317,4.9,7.6,89,0.04,,,1.06,VWS V14.00,2013-05-02 21:11:00,
2013-05-02 16:16:00,34.2,31.3,29.26,WSW,245,8.3,11.9,89,0.04,,,1.06,VWS V14.00,2013-05-02 21:16:00,
2013-05-02 16:21:00,34.3,31.4,29.26,West,272,4.5,8.1,89,0.04,,,1.06,VWS V14.00,2013-05-02 21:21:00,
2013-05-02 16:26:00,34.5,31.6,29.23,SW,228,4.0,10.1,89,0.04,,,1.06,VWS V14.00,2013-05-02 21:26:00,
2013-05-02 16:31:00,34.3,31.4,29.23,WNW,285,5.4,11.0,89,0.04,,,1.10,VWS V14.00,2013-05-02 21:31:00,
2013-05-02 16:36:00,34.3,31.4,29.23,West,279,6.7,12.3,89,0.04,,,1.10,VWS V14.00,2013-05-02 21:36:00,
2013-05-02 16:41:00,34.5,31.6,29.26,WNW,283,5.4,8.3,89,0.04,,,1.10,VWS V14.00,2013-05-02 21:41:00,
2013-05-02 16:46:00,34.5,31.6,29.26,WNW,284,6.3,12.8,89,0.04,,,1.10,VWS V14.00,2013-05-02 21:46:00,
2013-05-02 16:51:00,34.5,31.6,29.26,NW,312,5.4,6.3,89,0.04,,,1.10,VWS V14.00,2013-05-02 21:51:00,
2013-05-02 16:56:00,34.3,31.4,29.23,WNW,303,5.8,10.1,89,0.04,,,1.10,VWS V14.00,2013-05-02 21:56:00,
2013-05-02 17:01:00,34.5,31.6,29.23,West,274,4.0,4.0,89,0.04,,,1.10,VWS V14.00,2013-05-02 22:01:00,
2013-05-02 17:06:00,34.3,31.4,29.23,West,260,6.7,11.0,89,0.08,,,1.14,VWS V14.00,2013-05-02 22:06:00,
2013-05-02 17:11:00,34.5,31.6,29.23,West,261,5.8,8.3,89,0.08,,,1.14,VWS V14.00,2013-05-02 22:11:00,
2013-05-02 17:16:00,34.5,31.6,29.23,WNW,282,8.7,8.7,89,0.08,,,1.14,VWS V14.00,2013-05-02 22:16:00,
2013-05-02 17:21:00,34.3,31.4,29.23,West,264,4.0,6.3,89,0.08,,,1.14,VWS V14.00,2013-05-02 22:21:00,
2013-05-02 17:26:00,34.5,31.6,29.26,WNW,291,4.9,8.1,89,0.08,,,1.14,VWS V14.00,2013-05-02 22:26:00,
2013-05-02 17:31:00,34.2,31.3,29.26,WSW,243,8.7,8.7,89,0.08,,,1.14,VWS V14.00,2013-05-02 22:31:00,
2013-05-02 17:36:00,34.2,31.3,29.26,WSW,253,5.4,8.7,89,0.08,,,1.14,VWS V14.00,2013-05-02 22:36:00,
2013-05-02 17:41:00,34.3,31.4,29.26,WSW,248,3.1,4.9,89,0.04,,,1.14,VWS V14.00,2013-05-02 22:41:00,
2013-05-02 17:46:00,34.2,31.3,29.26,WNW,290,5.4,7.6,89,0.04,,,1.14,VWS V14.00,2013-05-02 22:46:00,
2013-05-02 17:51:00,34.3,31.4,29.26,SSW,207,3.6,5.8,89,0.04,,,1.14,VWS V14.00,2013-05-02 22:51:00,
2013-05-02 17:56:00,34.3,31.4,29.26,WNW,298,4.0,8.1,89,0.08,,,1.18,VWS V14.00,2013-05-02 22:56:00,
2013-05-02 18:01:00,34.3,31.4,29.26,West,265,3.6,6.3,89,0.08,,,1.18,VWS V14.00,2013-05-02 23:01:00,
2013-05-02 18:06:00,34.3,31.4,29.26,WNW,297,4.0,10.1,89,0.08,,,1.18,VWS V14.00,2013-05-02 23:06:00,
2013-05-02 18:11:00,34.3,31.4,29.26,West,280,5.8,7.6,89,0.04,,,1.18,VWS V14.00,2013-05-02 23:11:00,
2013-05-02 18:16:00,34.3,31.4,29.26,West,281,5.4,8.1,89,0.04,,,1.18,VWS V14.00,2013-05-02 23:16:00,
2013-05-02 18:21:00,34.2,31.3,29.26,WNW,294,8.1,8.1,89,0.04,,,1.18,VWS V14.00,2013-05-02 23:21:00,
2013-05-02 18:26:00,34.0,31.1,29.26,West,279,2.7,8.7,89,0.04,,,1.18,VWS V14.00,2013-05-02 23:26:00,
2013-05-02 18:31:00,34.0,31.1,29.26,West,265,5.8,5.8,89,0.04,,,1.18,VWS V14.00,2013-05-02 23:31:00,
2013-05-02 18:36:00,34.0,31.1,29.26,NW,320,0.0,8.3,89,0.04,,,1.18,VWS V14.00,2013-05-02 23:36:00,
2013-05-02 18:41:00,34.0,31.1,29.26,NW,320,5.4,5.4,89,0.04,,,1.18,VWS V14.00,2013-05-02 23:41:00,
2013-05-02 18:46:00,34.0,31.1,29.26,West,271,3.1,8.7,89,0.04,,,1.18,VWS V14.00,2013-05-02 23:46:00,
2013-05-02 18:51:00,33.8,30.9,29.26,WNW,285,4.0,4.0,89,0.04,,,1.18,VWS V14.00,2013-05-02 23:51:00,
2013-05-02 18:56:00,34.0,31.1,29.26,WSW,246,2.7,6.3,89,0.04,,,1.18,VWS V14.00,2013-05-02 23:56:00,
2013-05-02 19:01:00,34.0,31.1,29.26,WSW,244,3.6,4.0,89,0.00,,,1.18,VWS V14.00,2013-05-03 00:01:00,
2013-05-02 19:06:00,34.0,31.1,29.26,WNW,287,4.0,6.3,89,0.00,,,1.18,VWS V14.00,2013-05-03 00:06:00,
2013-05-02 19:11:00,34.0,31.1,29.26,NW,306,3.1,5.4,89,0.00,,,1.18,VWS V14.00,2013-05-03 00:11:00,
2013-05-02 19:16:00,34.0,31.1,29.26,NW,307,2.2,5.4,89,0.00,,,1.18,VWS V14.00,2013-05-03 00:16:00,
2013-05-02 19:21:00,34.0,31.4,29.26,NNW,327,4.0,4.9,90,0.00,,,1.18,VWS V14.00,2013-05-03 00:21:00,
2013-05-02 19:26:00,34.0,31.4,29.26,WSW,253,0.0,5.4,90,0.00,,,1.18,VWS V14.00,2013-05-03 00:26:00,
2013-05-02 19:31:00,34.3,31.7,29.26,SW,228,3.1,3.1,90,0.00,,,1.18,VWS V14.00,2013-05-03 00:31:00,
2013-05-02 19:36:00,34.2,31.5,29.26,WNW,288,4.0,7.6,90,0.00,,,1.18,VWS V14.00,2013-05-03 00:36:00,
2013-05-02 19:41:00,34.3,31.7,29.23,West,267,4.9,5.8,90,0.00,,,1.18,VWS V14.00,2013-05-03 00:41:00,
2013-05-02 19:46:00,34.2,31.5,29.23,WNW,293,2.7,5.8,90,0.00,,,1.18,VWS V14.00,2013-05-03 00:46:00,
2013-05-02 19:51:00,34.2,31.5,29.23,NW,313,2.7,4.0,90,0.00,,,1.18,VWS V14.00,2013-05-03 00:51:00,
2013-05-02 19:56:00,34.2,31.5,29.23,WNW,301,4.0,6.3,90,0.00,,,1.18,VWS V14.00,2013-05-03 00:56:00,
2013-05-02 20:01:00,34.3,31.7,29.23,NW,305,5.4,8.7,90,0.00,,,1.18,VWS V14.00,2013-05-03 01:01:00,
2013-05-02 20:06:00,34.3,32.0,29.23,WNW,292,5.4,10.1,91,0.00,,,1.18,VWS V14.00,2013-05-03 01:06:00,
2013-05-02 20:11:00,34.3,32.0,29.23,NW,309,2.7,5.8,91,0.04,,,1.22,VWS V14.00,2013-05-03 01:11:00,
2013-05-02 20:16:00,34.3,32.0,29.23,West,274,6.3,6.3,91,0.04,,,1.22,VWS V14.00,2013-05-03 01:16:00,
2013-05-02 20:21:00,34.3,32.0,29.23,NNW,327,5.8,7.2,91,0.04,,,1.22,VWS V14.00,2013-05-03 01:21:00,
2013-05-02 20:26:00,34.3,32.0,29.23,NNW,345,3.6,8.1,91,0.04,,,1.22,VWS V14.00,2013-05-03 01:26:00,
2013-05-02 20:31:00,34.3,32.0,29.23,NW,309,0.0,5.4,91,0.04,,,1.22,VWS V14.00,2013-05-03 01:31:00,
2013-05-02 20:36:00,34.7,32.3,29.23,West,272,5.8,10.5,91,0.04,,,1.22,VWS V14.00,2013-05-03 01:36:00,
2013-05-02 20:41:00,34.7,32.3,29.23,WSW,256,3.6,3.6,91,0.04,,,1.22,VWS V14.00,2013-05-03 01:41:00,
2013-05-02 20:46:00,34.5,32.2,29.23,West,277,0.0,4.9,91,0.04,,,1.22,VWS V14.00,2013-05-03 01:46:00,
2013-05-02 20:51:00,34.7,32.3,29.23,West,272,5.4,5.4,91,0.04,,,1.22,VWS V14.00,2013-05-03 01:51:00,
2013-05-02 20:56:00,34.7,32.3,29.23,NW,320,0.0,8.3,91,0.04,,,1.22,VWS V14.00,2013-05-03 01:56:00,
2013-05-02 21:01:00,34.9,32.5,29.23,WSW,242,2.7,5.8,91,0.04,,,1.22,VWS V14.00,2013-05-03 02:01:00,
2013-05-02 21:06:00,34.9,32.8,29.23,West,271,4.5,5.8,92,0.04,,,1.22,VWS V14.00,2013-05-03 02:06:00,
2013-05-02 21:11:00,35.1,33.0,29.23,WNW,302,4.0,7.6,92,0.04,,,1.22,VWS V14.00,2013-05-03 02:11:00,
2013-05-02 21:16:00,34.9,32.8,29.23,WSW,250,4.9,7.6,92,0.04,,,1.22,VWS V14.00,2013-05-03 02:16:00,
2013-05-02 21:21:00,35.1,33.0,29.23,WSW,255,2.7,4.0,92,0.00,,,1.22,VWS V14.00,2013-05-03 02:21:00,
2013-05-02 21:26:00,35.1,33.0,29.23,WSW,246,5.4,6.3,92,0.00,,,1.22,VWS V14.00,2013-05-03 02:26:00,
2013-05-02 21:31:00,35.2,33.2,29.23,WNW,283,8.1,8.1,92,0.00,,,1.22,VWS V14.00,2013-05-03 02:31:00,
2013-05-02 21:36:00,35.1,33.0,29.23,West,277,2.7,8.1,92,0.04,,,1.26,VWS V14.00,2013-05-03 02:36:00,
2013-05-02 21:41:00,35.2,33.2,29.23,WNW,289,4.0,6.3,92,0.04,,,1.26,VWS V14.00,2013-05-03 02:41:00,
2013-05-02 21:46:00,35.4,33.3,29.23,West,273,3.1,6.3,92,0.04,,,1.26,VWS V14.00,2013-05-03 02:46:00,
2013-05-02 21:51:00,35.2,33.2,29.23,WNW,297,5.4,5.4,92,0.04,,,1.26,VWS V14.00,2013-05-03 02:51:00,
2013-05-02 21:56:00,35.4,33.3,29.23,WNW,300,5.4,5.4,92,0.04,,,1.26,VWS V14.00,2013-05-03 02:56:00,
2013-05-02 22:01:00,35.4,33.3,29.23,WNW,301,2.7,3.6,92,0.04,,,1.26,VWS V14.00,2013-05-03 03:01:00,
2013-05-02 22:06:00,35.4,33.3,29.23,WNW,295,4.9,5.4,92,0.04,,,1.26,VWS V14.00,2013-05-03 03:06:00,
2013-05-02 22:11:00,35.4,33.6,29.23,NNW,343,2.7,3.1,93,0.04,,,1.26,VWS V14.00,2013-05-03 03:11:00,
2013-05-02 22:16:00,35.6,33.5,29.23,West,268,3.1,10.1,92,0.04,,,1.26,VWS V14.00,2013-05-03 03:16:00,
2013-05-02 22:21:00,35.6,33.5,29.23,West,271,4.0,5.8,92,0.04,,,1.26,VWS V14.00,2013-05-03 03:21:00,
2013-05-02 22:26:00,35.6,33.5,29.23,NW,308,0.0,8.1,92,0.04,,,1.26,VWS V14.00,2013-05-03 03:26:00,
2013-05-02 22:31:00,35.6,33.5,29.23,West,277,4.0,4.9,92,0.04,,,1.26,VWS V14.00,2013-05-03 03:31:00,
2013-05-02 22:36:00,35.6,33.5,29.23,WNW,285,5.8,5.8,92,0.04,,,1.26,VWS V14.00,2013-05-03 03:36:00,
2013-05-02 22:41:00,35.6,33.5,29.21,WNW,293,3.1,3.1,92,0.04,,,1.30,VWS V14.00,2013-05-03 03:41:00,
2013-05-02 22:46:00,35.6,33.8,29.21,WNW,286,8.1,8.1,93,0.04,,,1.30,VWS V14.00,2013-05-03 03:46:00,
2013-05-02 22:51:00,35.6,33.8,29.21,WNW,283,0.0,7.6,93,0.04,,,1.30,VWS V14.00,2013-05-03 03:51:00,
2013-05-02 22:56:00,35.6,33.8,29.21,WNW,294,0.0,7.6,93,0.04,,,1.30,VWS V14.00,2013-05-03 03:56:00,
2013-05-02 23:01:00,35.6,33.8,29.21,WNW,286,2.7,3.1,93,0.04,,,1.30,VWS V14.00,2013-05-03 04:01:00,
2013-05-02 23:06:00,35.6,33.8,29.21,NW,321,2.2,6.3,93,0.04,,,1.30,VWS V14.00,2013-05-03 04:06:00,
2013-05-02 23:11:00,35.6,33.8,29.21,NW,306,4.9,4.9,93,0.04,,,1.30,VWS V14.00,2013-05-03 04:11:00,
2013-05-02 23:16:00,35.4,33.6,29.21,WSW,253,3.1,5.8,93,0.04,,,1.30,VWS V14.00,2013-05-03 04:16:00,
2013-05-02 23:21:00,35.2,33.4,29.21,West,269,0.0,6.3,93,0.04,,,1.30,VWS V14.00,2013-05-03 04:21:00,
2013-05-02 23:26:00,34.9,33.1,29.21,West,265,3.6,6.3,93,0.04,,,1.30,VWS V14.00,2013-05-03 04:26:00,
2013-05-02 23:31:00,34.9,33.1,29.21,West,272,2.7,4.9,93,0.04,,,1.30,VWS V14.00,2013-05-03 04:31:00,
2013-05-02 23:36:00,34.9,33.1,29.21,West,279,3.1,6.3,93,0.04,,,1.30,VWS V14.00,2013-05-03 04:36:00,
2013-05-02 23:41:00,34.7,32.9,29.21,West,280,2.2,4.0,93,0.00,,,1.30,VWS V14.00,2013-05-03 04:41:00,
2013-05-02 23:46:00,34.7,32.9,29.21,West,280,2.7,4.0,93,0.00,,,1.30,VWS V14.00,2013-05-03 04:46:00,
2013-05-02 23:51:00,34.9,33.1,29.21,NW,314,3.6,5.4,93,0.00,,,1.30,VWS V14.00,2013-05-03 04:51:00,
2013-05-02 23:56:00,34.9,33.1,29.21,West,280,5.8,5.8,93,0.00,,,1.30,VWS V14.00,2013-05-03 04:56:00,